Time;durP1;ratioP1;P1;durP2;ratioP2;P2;SDS_P1;SDS_P2;PMS_P1;PMS_P2;Temp;Humidity;BMP_temperature;BMP_pressure;BME280_temperature;BME280_humidity;BME280_pressure;Samples;Min_cycle;Max_cycle;Signal;HPM_P1;HPM_P2
2021/09/08 00:00:49;;;;;;;12.65;10.20;;;21.00;75.60;;;;;;5117325;28;20035;-72
2021/09/08 00:03:14;;;;;;;11.57;9.85;;;21.00;75.70;;;;;;5118007;28;20419;-70
2021/09/08 00:05:40;;;;;;;12.40;10.95;;;21.00;75.70;;;;;;5098990;28;20044;-70
2021/09/08 00:08:06;;;;;;;11.05;9.95;;;21.00;75.60;;;;;;5117346;28;20047;-71
2021/09/08 00:10:32;;;;;;;13.32;10.68;;;21.00;75.70;;;;;;5117169;28;20115;-72
2021/09/08 00:12:58;;;;;;;12.75;10.52;;;21.00;75.50;;;;;;5117955;28;20039;-71
2021/09/08 00:15:24;;;;;;;11.88;10.68;;;21.00;75.70;;;;;;5117050;28;20362;-71
2021/09/08 00:17:49;;;;;;;11.93;10.68;;;21.00;75.60;;;;;;5117333;28;20112;-71
2021/09/08 00:20:15;;;;;;;10.98;9.75;;;21.00;75.60;;;;;;5117284;28;20077;-72
2021/09/08 00:22:44;;;;;;;12.40;11.13;;;21.00;75.60;;;;;;5117069;28;20042;-72
2021/09/08 00:25:11;;;;;;;10.98;9.88;;;21.00;75.30;;;;;;5116421;28;20061;-71
2021/09/08 00:27:37;;;;;;;11.10;9.93;;;21.00;75.20;;;;;;5117495;28;20108;-72
2021/09/08 00:30:05;;;;;;;13.10;11.70;;;21.00;75.30;;;;;;5117202;28;20044;-71
2021/09/08 00:32:30;;;;;;;13.05;10.70;;;21.00;75.30;;;;;;5116888;28;20047;-72
2021/09/08 00:34:56;;;;;;;12.27;10.88;;;21.00;75.30;;;;;;5098062;28;20051;-71
2021/09/08 00:37:22;;;;;;;13.02;10.45;;;20.90;75.10;;;;;;5116731;28;20083;-72
2021/09/08 00:39:47;;;;;;;11.65;10.45;;;20.90;75.00;;;;;;5099396;28;20343;-72
2021/09/08 00:42:17;;;;;;;12.38;10.65;;;20.90;75.10;;;;;;5116818;28;20107;-72
2021/09/08 00:44:44;;;;;;;12.52;10.82;;;20.90;74.90;;;;;;5116504;28;20481;-71
2021/09/08 00:47:14;;;;;;;11.23;10.00;;;20.90;75.00;;;;;;5098939;28;20172;-72
2021/09/08 00:49:40;;;;;;;13.70;10.25;;;20.90;75.00;;;;;;5116643;28;20035;-70
2021/09/08 00:52:08;;;;;;;14.10;10.88;;;20.90;74.90;;;;;;5116318;28;20491;-71
2021/09/08 00:54:35;;;;;;;13.55;11.32;;;20.90;75.00;;;;;;5117069;28;20051;-70
2021/09/08 00:57:03;;;;;;;11.25;10.07;;;20.90;75.00;;;;;;5116093;28;20047;-71
2021/09/08 00:59:30;;;;;;;12.23;10.23;;;20.80;75.00;;;;;;5116565;28;20392;-71
2021/09/08 01:01:58;;;;;;;11.95;10.13;;;20.80;75.10;;;;;;5116305;28;20551;-72
2021/09/08 01:04:23;;;;;;;11.98;10.77;;;20.80;75.20;;;;;;5116504;28;20039;-72
2021/09/08 01:06:49;;;;;;;11.07;9.65;;;20.80;74.90;;;;;;5116733;28;20426;-71
2021/09/08 01:09:16;;;;;;;10.50;9.40;;;20.80;75.00;;;;;;5115947;28;20434;-71
2021/09/08 01:11:42;;;;;;;11.10;10.00;;;20.80;75.00;;;;;;5116584;28;20050;-71
2021/09/08 01:14:08;;;;;;;10.95;9.32;;;20.80;75.00;;;;;;5116086;28;20040;-70
2021/09/08 01:16:34;;;;;;;12.05;10.70;;;20.80;75.00;;;;;;5116070;28;20043;-71
2021/09/08 01:19:00;;;;;;;11.80;10.18;;;20.80;74.90;;;;;;5116011;28;20040;-71
2021/09/08 01:21:25;;;;;;;11.82;9.98;;;20.80;75.00;;;;;;5115794;28;20515;-70
2021/09/08 01:23:51;;;;;;;11.90;10.55;;;20.80;74.70;;;;;;5115733;28;20350;-72
2021/09/08 01:26:17;;;;;;;12.27;10.35;;;20.80;74.70;;;;;;5116066;28;20036;-72
2021/09/08 01:28:43;;;;;;;10.35;9.25;;;20.80;74.40;;;;;;5115959;28;20139;-72
2021/09/08 01:31:08;;;;;;;11.02;9.90;;;20.80;74.70;;;;;;5115910;28;20387;-70
2021/09/08 01:33:34;;;;;;;11.98;10.15;;;20.80;74.60;;;;;;5115448;28;20040;-71
2021/09/08 01:36:01;;;;;;;10.75;9.00;;;20.80;74.70;;;;;;5116165;28;20118;-71
2021/09/08 01:38:27;;;;;;;10.65;9.52;;;20.70;74.60;;;;;;5115500;28;20469;-73
2021/09/08 01:40:53;;;;;;;10.95;9.68;;;20.80;74.70;;;;;;5098073;28;20526;-72
2021/09/08 01:43:24;;;;;;;10.40;9.32;;;20.80;74.50;;;;;;5097757;28;20091;-71
2021/09/08 01:45:50;;;;;;;10.80;9.57;;;20.70;74.50;;;;;;5097428;28;20561;-71
2021/09/08 01:48:16;;;;;;;11.25;10.13;;;20.80;74.40;;;;;;5115445;28;20040;-71
2021/09/08 01:50:42;;;;;;;10.65;9.20;;;20.70;74.40;;;;;;5115434;28;20503;-71
2021/09/08 01:53:07;;;;;;;10.60;9.50;;;20.70;75.20;;;;;;5097960;28;20126;-72
2021/09/08 01:55:33;;;;;;;10.80;9.70;;;20.70;74.60;;;;;;5115523;28;20046;-71
2021/09/08 01:57:59;;;;;;;11.07;9.57;;;20.70;74.60;;;;;;5115635;28;20040;-71
2021/09/08 02:00:26;;;;;;;11.10;9.88;;;20.70;74.60;;;;;;5115909;28;20043;-72
2021/09/08 02:02:52;;;;;;;11.13;9.88;;;20.70;74.60;;;;;;5115492;28;20342;-71
2021/09/08 02:05:18;;;;;;;11.18;9.57;;;20.70;74.60;;;;;;5115832;28;20067;-71
2021/09/08 02:07:44;;;;;;;11.52;10.13;;;20.70;74.50;;;;;;5115139;28;20039;-71
2021/09/08 02:10:10;;;;;;;11.55;9.75;;;20.70;74.50;;;;;;5115413;28;20040;-71
2021/09/08 02:12:37;;;;;;;11.00;9.90;;;20.70;74.30;;;;;;5115771;28;20052;-71
2021/09/08 02:15:05;;;;;;;10.85;9.75;;;20.70;74.40;;;;;;5115747;28;20308;-71
2021/09/08 02:17:30;;;;;;;9.82;8.82;;;20.70;74.50;;;;;;5115435;28;20354;-71
2021/09/08 02:19:57;;;;;;;12.20;9.82;;;20.70;74.50;;;;;;5115127;28;20036;-72
2021/09/08 02:22:23;;;;;;;10.90;9.38;;;20.70;74.50;;;;;;5097482;28;20519;-71
2021/09/08 02:24:49;;;;;;;11.05;9.55;;;20.70;74.60;;;;;;5115215;28;20074;-71
2021/09/08 02:27:14;;;;;;;11.25;10.10;;;20.70;75.00;;;;;;5115312;28;20117;-72
2021/09/08 02:29:40;;;;;;;11.80;10.60;;;20.70;74.30;;;;;;5115400;28;20415;-71
2021/09/08 02:32:06;;;;;;;11.57;10.38;;;20.60;74.00;;;;;;5115176;28;20043;-71
2021/09/08 02:34:32;;;;;;;11.00;9.57;;;20.60;73.90;;;;;;5114758;28;20048;-71
2021/09/08 02:36:58;;;;;;;13.35;9.75;;;20.60;74.00;;;;;;5114996;28;20039;-71
2021/09/08 02:39:24;;;;;;;10.90;9.55;;;20.60;73.90;;;;;;5097462;28;20051;-72
2021/09/08 02:41:49;;;;;;;11.07;9.93;;;20.60;73.90;;;;;;5115118;28;20051;-71
2021/09/08 02:44:15;;;;;;;10.35;9.23;;;20.60;74.00;;;;;;5114547;28;20153;-73
2021/09/08 02:46:41;;;;;;;11.45;9.82;;;20.60;73.90;;;;;;5097259;28;20040;-72
2021/09/08 02:49:08;;;;;;;13.55;10.75;;;20.60;74.20;;;;;;5114347;28;20076;-71
2021/09/08 02:51:33;;;;;;;11.10;9.45;;;20.50;74.50;;;;;;5115300;28;20043;-70
2021/09/08 02:53:59;;;;;;;10.27;9.25;;;20.50;74.10;;;;;;5115042;28;20501;-71
2021/09/08 02:56:25;;;;;;;11.73;9.30;;;20.50;74.30;;;;;;5115693;28;20052;-71
2021/09/08 02:58:50;;;;;;;11.40;9.80;;;20.50;74.40;;;;;;5117126;28;20035;-71
2021/09/08 03:01:16;;;;;;;11.75;9.82;;;20.50;74.40;;;;;;5118658;28;20035;-71
2021/09/08 03:03:42;;;;;;;10.80;9.50;;;20.50;74.40;;;;;;5118532;28;20422;-71
2021/09/08 03:06:07;;;;;;;10.93;9.02;;;20.50;74.30;;;;;;5119045;28;20096;-72
2021/09/08 03:08:33;;;;;;;9.68;8.68;;;20.50;74.30;;;;;;5118648;28;20515;-71
2021/09/08 03:10:59;;;;;;;10.30;9.20;;;20.50;74.30;;;;;;5118538;28;20123;-71
2021/09/08 03:13:25;;;;;;;9.90;8.85;;;20.50;74.20;;;;;;5119313;28;20079;-72
2021/09/08 03:15:50;;;;;;;10.25;9.05;;;20.50;74.10;;;;;;5100462;28;20044;-71
2021/09/08 03:18:16;;;;;;;12.20;9.43;;;20.40;74.00;;;;;;5118210;28;20051;-72
2021/09/08 03:20:42;;;;;;;12.15;10.18;;;20.40;74.00;;;;;;5101003;28;20043;-70
2021/09/08 03:23:08;;;;;;;11.38;10.15;;;20.40;73.80;;;;;;5117890;28;20040;-71
2021/09/08 03:25:33;;;;;;;11.35;10.15;;;20.40;73.90;;;;;;5100825;28;20039;-72
2021/09/08 03:27:59;;;;;;;12.07;10.25;;;20.30;74.70;;;;;;5118266;28;20035;-72
2021/09/08 03:30:25;;;;;;;11.13;10.02;;;20.30;74.10;;;;;;5117830;28;20054;-73
2021/09/08 03:32:51;;;;;;;13.00;10.43;;;20.30;73.90;;;;;;5118035;28;20079;-71
2021/09/08 03:35:16;;;;;;;11.05;9.02;;;20.30;73.80;;;;;;5117687;28;20050;-71
2021/09/08 03:37:42;;;;;;;9.90;8.88;;;20.30;74.10;;;;;;5117864;28;20043;-71
2021/09/08 03:40:09;;;;;;;11.27;10.13;;;20.30;74.20;;;;;;5118444;28;20039;-70
2021/09/08 03:42:36;;;;;;;10.68;8.90;;;20.30;73.90;;;;;;5117981;28;20051;-71
2021/09/08 03:45:03;;;;;;;11.73;9.70;;;20.30;73.80;;;;;;5117932;28;20362;-71
2021/09/08 03:47:28;;;;;;;11.52;9.80;;;20.30;73.50;;;;;;5118066;28;20055;-71
2021/09/08 03:49:54;;;;;;;11.45;9.13;;;20.30;73.90;;;;;;5117632;28;20043;-71
2021/09/08 03:52:20;;;;;;;10.35;9.25;;;20.30;73.90;;;;;;5117839;28;20035;-71
2021/09/08 03:54:45;;;;;;;11.48;10.27;;;20.20;73.70;;;;;;5117749;28;20100;-72
2021/09/08 03:57:11;;;;;;;10.57;9.48;;;20.30;73.60;;;;;;5117477;28;20130;-70
2021/09/08 03:59:38;;;;;;;10.75;9.65;;;20.20;73.60;;;;;;5117376;28;20027;-72
2021/09/08 04:02:05;;;;;;;11.55;9.48;;;20.20;73.50;;;;;;5117426;28;20343;-71
2021/09/08 04:04:31;;;;;;;13.25;9.88;;;20.30;73.60;;;;;;5117961;28;20127;-71
2021/09/08 04:06:57;;;;;;;11.77;10.10;;;20.20;73.60;;;;;;5117433;28;20373;-72
2021/09/08 04:09:22;;;;;;;11.88;10.13;;;20.20;73.60;;;;;;5117976;28;20038;-72
2021/09/08 04:11:48;;;;;;;10.82;9.57;;;20.20;73.60;;;;;;5099465;28;20046;-71
2021/09/08 04:14:14;;;;;;;12.82;9.60;;;20.10;73.40;;;;;;5116994;28;20093;-71
2021/09/08 04:16:39;;;;;;;12.32;10.30;;;20.20;73.30;;;;;;5117444;28;20051;-71
2021/09/08 04:19:05;;;;;;;12.73;10.60;;;20.10;73.30;;;;;;5117477;28;20121;-71
2021/09/08 04:21:31;;;;;;;11.52;10.32;;;20.10;73.10;;;;;;5116987;28;20118;-71
2021/09/08 04:23:57;;;;;;;12.02;10.73;;;20.10;73.30;;;;;;5116971;28;20043;-71
2021/09/08 04:26:23;;;;;;;12.38;10.43;;;20.10;74.00;;;;;;5117032;28;20043;-72
2021/09/08 04:28:49;;;;;;;14.10;11.52;;;20.10;73.50;;;;;;5116451;28;20122;-70
2021/09/08 04:31:16;;;;;;;14.70;10.77;;;20.10;72.90;;;;;;5117084;28;20116;-71
2021/09/08 04:33:42;;;;;;;12.85;10.45;;;20.10;73.10;;;;;;5116804;28;20043;-71
2021/09/08 04:36:07;;;;;;;12.50;10.88;;;20.10;72.90;;;;;;5116516;28;20065;-71
2021/09/08 04:38:33;;;;;;;11.50;10.30;;;20.00;73.20;;;;;;5117173;28;20044;-71
2021/09/08 04:40:59;;;;;;;12.23;10.20;;;20.00;73.20;;;;;;5116850;28;20062;-71
2021/09/08 04:43:24;;;;;;;11.70;10.45;;;20.00;73.20;;;;;;5116523;28;20107;-76
2021/09/08 04:45:50;;;;;;;12.20;10.50;;;20.00;73.50;;;;;;5099663;28;20087;-70
2021/09/08 04:48:17;;;;;;;12.13;9.95;;;20.00;73.40;;;;;;5110216;28;20067;-69
2021/09/08 04:50:43;;;;;;;13.85;11.38;;;20.00;73.30;;;;;;5095361;28;20132;-70
2021/09/08 04:53:09;;;;;;;14.93;10.82;;;20.00;73.00;;;;;;5094900;28;20074;-73
2021/09/08 04:55:35;;;;;;;14.85;12.10;;;20.00;72.90;;;;;;5096459;28;20036;-74
2021/09/08 04:58:00;;;;;;;13.15;10.68;;;20.00;72.40;;;;;;5096228;28;20036;-71
2021/09/08 05:00:27;;;;;;;15.80;11.65;;;19.90;72.40;;;;;;5095772;28;20075;-70
2021/09/08 05:02:53;;;;;;;16.95;12.10;;;20.00;72.60;;;;;;5096446;28;20086;-70
2021/09/08 05:05:19;;;;;;;13.05;10.90;;;19.90;72.20;;;;;;5095943;28;20160;-70
2021/09/08 05:07:44;;;;;;;13.02;10.70;;;19.90;72.40;;;;;;5078171;28;20123;-70
2021/09/08 05:10:11;;;;;;;16.73;14.00;;;19.90;72.50;;;;;;5095637;28;20043;-69
2021/09/08 05:12:36;;;;;;;17.33;15.18;;;20.00;72.50;;;;;;5096937;28;20044;-69
2021/09/08 05:15:05;;;;;;;20.33;15.95;;;20.00;71.10;;;;;;5096110;28;20040;-70
2021/09/08 05:17:31;;;;;;;22.00;16.67;;;20.00;70.50;;;;;;5096100;28;20043;-69
2021/09/08 05:19:57;;;;;;;22.60;17.63;;;19.90;70.00;;;;;;5095509;28;20393;-72
2021/09/08 05:22:23;;;;;;;20.48;16.38;;;19.80;69.70;;;;;;5077210;28;20127;-71
2021/09/08 05:24:48;;;;;;;22.08;17.95;;;19.70;69.60;;;;;;5095458;28;20055;-70
2021/09/08 05:27:14;;;;;;;22.70;18.05;;;19.60;69.50;;;;;;5096275;28;20067;-71
2021/09/08 05:29:40;;;;;;;20.63;16.50;;;19.40;69.70;;;;;;5095488;28;20420;-70
2021/09/08 05:32:06;;;;;;;23.20;17.23;;;19.20;70.50;;;;;;5077722;28;20520;-70
2021/09/08 05:34:32;;;;;;;23.70;18.15;;;19.20;70.80;;;;;;5094860;28;20044;-73
2021/09/08 05:36:58;;;;;;;23.88;18.38;;;19.20;70.60;;;;;;5094318;28;20036;-69
2021/09/08 05:39:23;;;;;;;23.70;18.40;;;19.10;70.80;;;;;;5095398;28;20036;-69
2021/09/08 05:41:49;;;;;;;19.40;17.30;;;19.10;71.30;;;;;;5095556;28;20040;-69
2021/09/08 05:44:15;;;;;;;22.23;19.13;;;19.00;71.40;;;;;;5095095;28;20059;-69
2021/09/08 05:46:41;;;;;;;24.00;17.63;;;19.00;71.50;;;;;;5095430;28;20197;-70
2021/09/08 05:49:06;;;;;;;25.85;17.92;;;18.90;72.20;;;;;;5095284;28;20043;-70
2021/09/08 05:51:32;;;;;;;24.60;16.67;;;18.90;72.90;;;;;;5095211;28;20375;-71
2021/09/08 05:53:58;;;;;;;26.20;16.70;;;19.00;73.10;;;;;;5095103;28;20127;-69
2021/09/08 05:56:24;;;;;;;26.65;15.55;;;19.00;73.70;;;;;;5095354;28;20044;-69
2021/09/08 05:58:49;;;;;;;23.02;15.57;;;19.20;73.40;;;;;;5095011;28;20339;-71
2021/09/08 06:01:15;;;;;;;22.30;15.75;;;19.20;73.30;;;;;;5077243;28;20043;-69
2021/09/08 06:03:41;;;;;;;20.40;14.57;;;19.20;73.20;;;;;;5077152;28;20044;-69
2021/09/08 06:06:06;;;;;;;20.95;14.50;;;19.30;73.00;;;;;;5094738;28;20046;-69
2021/09/08 06:08:32;;;;;;;22.08;14.18;;;19.30;73.80;;;;;;5095071;28;20114;-69
2021/09/08 06:10:58;;;;;;;19.20;13.90;;;19.30;73.30;;;;;;5060582;28;20048;-70
2021/09/08 06:13:24;;;;;;;23.55;14.32;;;19.40;74.00;;;;;;5076880;28;20348;-69
2021/09/08 06:15:50;;;;;;;20.80;14.90;;;19.50;73.20;;;;;;5077596;28;20040;-70
2021/09/08 06:18:15;;;;;;;18.65;14.30;;;19.50;73.10;;;;;;5094489;28;20128;-69
2021/09/08 06:20:41;;;;;;;18.20;14.60;;;19.50;72.90;;;;;;5094807;28;20055;-69
2021/09/08 06:23:07;;;;;;;23.45;14.57;;;19.60;72.80;;;;;;5094821;28;20040;-69
2021/09/08 06:25:33;;;;;;;19.88;15.60;;;19.50;72.70;;;;;;5094472;28;20123;-71
2021/09/08 06:27:58;;;;;;;21.27;16.05;;;19.60;72.80;;;;;;5094264;28;20127;-69
2021/09/08 06:30:24;;;;;;;19.27;15.27;;;19.50;72.60;;;;;;5094926;28;20304;-70
2021/09/08 06:32:50;;;;;;;22.75;16.23;;;19.60;72.70;;;;;;5076594;28;20046;-70
2021/09/08 06:35:16;;;;;;;23.02;16.98;;;19.60;72.80;;;;;;5098609;28;20028;-70
2021/09/08 06:37:43;;;;;;;19.25;15.52;;;19.60;73.00;;;;;;5098744;28;20036;-71
2021/09/08 06:40:10;;;;;;;24.60;15.98;;;19.60;72.80;;;;;;5099572;28;20039;-70
2021/09/08 06:42:36;;;;;;;22.73;15.70;;;19.60;72.70;;;;;;5098268;28;20052;-70
2021/09/08 06:45:02;;;;;;;21.00;15.60;;;19.60;72.70;;;;;;5098319;28;20105;-70
2021/09/08 06:47:28;;;;;;;25.50;15.88;;;19.60;72.80;;;;;;5098977;28;20073;-69
2021/09/08 06:49:54;;;;;;;18.05;14.85;;;19.70;72.90;;;;;;5098516;28;20040;-70
2021/09/08 06:52:20;;;;;;;25.17;16.48;;;19.60;72.90;;;;;;5098618;28;20419;-70
2021/09/08 06:54:46;;;;;;;22.73;15.85;;;19.70;73.00;;;;;;5080521;28;20075;-70
2021/09/08 06:57:16;;;;;;;29.40;15.07;;;19.70;73.10;;;;;;5098609;28;20039;-70
2021/09/08 06:59:43;;;;;;;27.55;14.70;;;19.70;73.30;;;;;;5098542;28;20054;-69
2021/09/08 07:02:09;;;;;;;22.88;14.65;;;19.80;73.30;;;;;;5098359;28;20047;-72
2021/09/08 07:04:35;;;;;;;24.02;13.48;;;19.90;73.30;;;;;;5097990;28;20048;-70
2021/09/08 07:07:02;;;;;;;21.55;12.88;;;19.90;73.20;;;;;;5098043;28;20044;-69
2021/09/08 07:09:27;;;;;;;20.77;12.70;;;20.00;73.20;;;;;;5080149;28;20067;-70
2021/09/08 07:11:53;;;;;;;23.02;12.48;;;20.00;73.10;;;;;;5080455;28;20044;-70
2021/09/08 07:14:19;;;;;;;20.73;11.77;;;20.00;73.00;;;;;;5097605;28;20484;-70
2021/09/08 07:16:45;;;;;;;15.15;11.43;;;20.10;73.00;;;;;;5097858;28;20131;-70
2021/09/08 07:19:11;;;;;;;19.77;11.70;;;20.10;72.90;;;;;;5097737;28;20050;-70
2021/09/08 07:21:37;;;;;;;15.43;10.30;;;20.20;72.90;;;;;;5097650;28;20046;-70
2021/09/08 07:24:03;;;;;;;17.27;10.45;;;20.20;72.80;;;;;;5097555;28;20043;-70
2021/09/08 07:26:35;;;;;;;22.52;11.25;;;20.30;72.80;;;;;;5097578;28;20385;-76
2021/09/08 07:29:05;;;;;;;24.27;10.85;;;20.30;72.80;;;;;;5062920;28;20047;-71
2021/09/08 07:31:32;;;;;;;23.02;10.63;;;20.30;72.80;;;;;;5080288;28;20040;-73
2021/09/08 07:33:58;;;;;;;17.42;10.68;;;20.30;72.80;;;;;;5080095;28;20040;-71
2021/09/08 07:36:24;;;;;;;17.60;11.45;;;20.30;72.70;;;;;;5097867;28;20036;-70
2021/09/08 07:38:51;;;;;;;16.17;11.20;;;20.30;72.70;;;;;;5097355;28;20087;-71
2021/09/08 07:41:18;;;;;;;12.43;8.65;;;20.40;72.80;;;;;;5080399;28;20105;-72
2021/09/08 07:43:44;;;;;;;11.25;8.57;;;20.40;72.80;;;;;;5096845;28;20066;-71
2021/09/08 07:46:11;;;;;;;15.93;8.90;;;20.40;72.90;;;;;;5097500;28;20055;-70
2021/09/08 07:48:37;;;;;;;23.00;9.00;;;20.40;73.00;;;;;;5079874;28;20050;-76
2021/09/08 07:51:03;;;;;;;16.10;10.00;;;20.40;73.10;;;;;;5079617;28;20470;-76
2021/09/08 07:53:29;;;;;;;16.73;9.48;;;20.50;73.20;;;;;;5079667;28;20039;-74
2021/09/08 07:55:54;;;;;;;16.45;9.35;;;20.50;73.00;;;;;;5097052;28;20108;-73
2021/09/08 07:58:20;;;;;;;13.48;8.50;;;20.50;72.90;;;;;;5079979;28;20060;-72
2021/09/08 08:00:46;;;;;;;14.48;8.25;;;20.50;72.90;;;;;;5097254;28;20044;-72
2021/09/08 08:03:11;;;;;;;14.40;8.80;;;20.60;73.00;;;;;;5096626;28;20447;-72
2021/09/08 08:05:37;;;;;;;16.23;8.77;;;20.50;73.00;;;;;;5096749;28;20079;-72
2021/09/08 08:08:03;;;;;;;13.90;8.20;;;20.60;73.10;;;;;;5096096;28;20043;-73
2021/09/08 08:10:29;;;;;;;12.23;7.93;;;20.60;73.00;;;;;;5078974;28;20054;-72
2021/09/08 08:12:56;;;;;;;14.48;8.02;;;20.60;73.00;;;;;;5096760;28;20405;-72
2021/09/08 08:15:21;;;;;;;13.73;6.97;;;20.60;73.00;;;;;;5079324;28;20127;-73
2021/09/08 08:17:48;;;;;;;11.77;7.30;;;20.60;73.00;;;;;;5078755;28;20119;-72
2021/09/08 08:20:15;;;;;;;14.93;7.88;;;20.70;73.10;;;;;;5096666;28;20415;-72
2021/09/08 08:22:42;;;;;;;14.20;7.68;;;20.70;73.10;;;;;;5096479;28;20048;-71
2021/09/08 08:25:11;;;;;;;12.35;7.65;;;20.70;73.20;;;;;;5096699;28;20393;-73
2021/09/08 08:27:37;;;;;;;14.85;7.35;;;20.70;73.20;;;;;;5096425;28;20040;-73
2021/09/08 08:30:06;;;;;;;23.02;7.88;;;20.70;73.00;;;;;;5078522;28;20052;-72
2021/09/08 08:32:32;;;;;;;17.15;8.05;;;20.70;73.10;;;;;;5096488;28;20040;-71
2021/09/08 08:34:57;;;;;;;22.02;8.18;;;20.70;73.20;;;;;;5078697;28;20324;-73
2021/09/08 08:37:23;;;;;;;26.00;8.23;;;20.70;73.30;;;;;;5096644;28;20040;-72
2021/09/08 08:39:49;;;;;;;30.30;7.72;;;20.80;73.40;;;;;;5078994;28;20131;-73
2021/09/08 08:42:21;;;;;;;39.53;9.07;;;20.80;73.40;;;;;;5096014;28;20130;-72
2021/09/08 08:44:48;;;;;;;22.27;7.55;;;20.80;74.10;;;;;;5093476;28;20104;-76
2021/09/08 08:47:14;;;;;;;21.17;7.75;;;20.80;73.90;;;;;;5096084;28;20101;-71
2021/09/08 08:49:41;;;;;;;19.25;7.43;;;20.90;73.60;;;;;;5095683;28;20044;-72
2021/09/08 08:52:08;;;;;;;19.15;7.05;;;20.90;73.50;;;;;;5095847;28;20101;-72
2021/09/08 08:54:34;;;;;;;22.27;7.30;;;20.90;73.50;;;;;;5096014;28;20051;-72
2021/09/08 08:57:00;;;;;;;20.00;6.68;;;20.90;73.50;;;;;;5094896;28;20040;-72
2021/09/08 08:59:25;;;;;;;17.10;6.72;;;20.90;73.50;;;;;;5095835;28;20076;-72
2021/09/08 09:01:51;;;;;;;17.77;6.45;;;20.90;73.50;;;;;;5096472;28;20090;-71
2021/09/08 09:04:17;;;;;;;15.57;6.75;;;21.00;73.60;;;;;;5095521;28;20169;-72
2021/09/08 09:06:48;;;;;;;19.40;6.93;;;21.00;73.60;;;;;;5095324;28;20362;-71
2021/09/08 09:09:16;;;;;;;15.32;6.90;;;21.00;73.60;;;;;;5094905;28;20105;-72
2021/09/08 09:11:45;;;;;;;11.65;6.13;;;21.00;73.50;;;;;;5094840;28;20044;-72
2021/09/08 09:14:12;;;;;;;9.40;5.88;;;21.00;73.50;;;;;;5095026;28;20463;-71
2021/09/08 09:16:40;;;;;;;14.73;5.97;;;21.00;73.50;;;;;;5094860;28;20044;-72
2021/09/08 09:19:07;;;;;;;11.93;5.93;;;21.00;73.50;;;;;;5095603;28;20151;-72
2021/09/08 09:21:33;;;;;;;12.32;6.60;;;21.00;73.50;;;;;;5095414;28;20044;-72
2021/09/08 09:24:02;;;;;;;10.27;5.68;;;21.00;73.50;;;;;;5095300;28;20351;-71
2021/09/08 09:26:30;;;;;;;15.60;6.30;;;21.10;73.50;;;;;;5094530;28;20119;-71
2021/09/08 09:29:10;;;;;;;20.20;5.65;;;21.10;73.50;;;;;;5095111;28;20119;-71
2021/09/08 09:31:49;;;;;;;13.23;5.88;;;21.10;73.40;;;;;;5094412;28;20044;-73
2021/09/08 09:34:15;;;;;;;11.40;5.85;;;21.10;73.40;;;;;;5095349;28;20128;-71
2021/09/08 09:36:40;;;;;;;12.38;5.65;;;21.10;73.40;;;;;;5095201;28;20081;-72
2021/09/08 09:39:06;;;;;;;11.95;5.72;;;21.10;73.40;;;;;;5095349;28;20101;-72
2021/09/08 09:41:35;;;;;;;12.13;6.10;;;21.10;73.30;;;;;;5095271;28;20036;-72
2021/09/08 09:44:14;;;;;;;10.65;6.18;;;21.10;73.30;;;;;;5095146;28;20063;-73
2021/09/08 09:46:41;;;;;;;9.63;5.78;;;21.10;73.30;;;;;;5094914;28;20063;-72
2021/09/08 09:49:07;;;;;;;10.25;5.45;;;21.10;73.20;;;;;;5095083;28;20119;-72
2021/09/08 09:51:34;;;;;;;12.02;5.85;;;21.10;73.30;;;;;;5077720;28;20168;-72
2021/09/08 09:54:00;;;;;;;9.80;5.35;;;21.20;73.20;;;;;;5095148;28;20054;-71
2021/09/08 09:56:26;;;;;;;13.70;6.00;;;21.20;73.30;;;;;;5095127;28;20355;-72
2021/09/08 09:58:52;;;;;;;9.50;5.53;;;21.20;73.20;;;;;;5095206;28;20044;-74
2021/09/08 10:01:19;;;;;;;10.35;5.55;;;21.20;73.20;;;;;;5095672;28;20320;-73
2021/09/08 10:03:45;;;;;;;10.18;5.45;;;21.20;73.10;;;;;;5077491;28;20040;-72
2021/09/08 10:06:11;;;;;;;6.80;5.30;;;21.20;73.10;;;;;;5094749;28;20040;-72
2021/09/08 10:08:43;;;;;;;10.63;5.53;;;21.20;73.00;;;;;;5080621;28;20040;-72
2021/09/08 10:11:12;;;;;;;11.15;5.65;;;21.20;73.10;;;;;;5099013;28;20355;-72
2021/09/08 10:13:44;;;;;;;14.20;5.80;;;21.20;73.10;;;;;;5099091;28;20115;-72
2021/09/08 10:16:10;;;;;;;10.07;6.03;;;21.20;73.20;;;;;;5081168;28;20455;-71
2021/09/08 10:18:36;;;;;;;7.32;5.00;;;21.30;73.30;;;;;;5081477;28;20040;-72
2021/09/08 10:21:08;;;;;;;8.30;5.07;;;21.20;73.20;;;;;;5099029;28;20058;-71
2021/09/08 10:23:44;;;;;;;10.48;5.95;;;21.20;73.10;;;;;;5098723;28;20044;-71
2021/09/08 10:26:16;;;;;;;13.27;5.80;;;21.30;73.20;;;;;;5081193;28;20043;-71
2021/09/08 10:28:44;;;;;;;11.20;5.63;;;21.30;73.40;;;;;;5099144;28;20081;-74
2021/09/08 10:31:11;;;;;;;13.23;6.43;;;21.30;73.50;;;;;;5098737;28;20051;-73
2021/09/08 10:33:41;;;;;;;13.65;5.95;;;21.30;73.50;;;;;;5098425;28;20040;-71
2021/09/08 10:36:12;;;;;;;9.52;5.10;;;21.30;73.60;;;;;;5098540;28;20044;-72
2021/09/08 10:38:38;;;;;;;12.43;5.80;;;21.30;73.30;;;;;;5099077;28;20111;-72
2021/09/08 10:41:05;;;;;;;14.93;5.97;;;21.30;73.50;;;;;;5098394;28;20391;-75
2021/09/08 10:43:34;;;;;;;16.33;6.78;;;21.30;73.60;;;;;;5098707;28;20062;-75
2021/09/08 10:46:01;;;;;;;15.30;6.63;;;21.30;73.70;;;;;;5098443;28;20040;-76
2021/09/08 10:48:42;;;;;;;10.70;6.43;;;21.30;73.20;;;;;;5063829;28;20122;-75
2021/09/08 10:51:44;;;;;;;14.60;6.95;;;21.40;73.40;;;;;;5080733;28;20455;-73
2021/09/08 10:54:09;;;;;;;12.80;6.40;;;21.40;72.50;;;;;;5080480;28;20119;-72
2021/09/08 10:56:46;;;;;;;9.07;6.20;;;21.40;73.10;;;;;;5098374;28;20193;-72
2021/09/08 10:59:12;;;;;;;12.55;7.13;;;21.40;73.00;;;;;;5098317;28;20363;-71
2021/09/08 11:01:40;;;;;;;9.63;5.95;;;21.40;73.10;;;;;;5098038;28;20044;-70
2021/09/08 11:04:13;;;;;;;9.10;6.25;;;21.40;73.10;;;;;;5098025;28;20123;-73
2021/09/08 11:06:44;;;;;;;11.93;6.72;;;21.40;73.10;;;;;;5097798;28;20040;-73
2021/09/08 11:09:12;;;;;;;12.18;6.15;;;21.40;73.10;;;;;;5098430;28;20050;-73
2021/09/08 11:11:58;;;;;;;10.20;5.82;;;21.40;73.10;;;;;;5097515;28;20467;-72
2021/09/08 11:14:49;;;;;;;9.68;6.13;;;21.40;72.90;;;;;;5097977;28;20040;-72
2021/09/08 11:17:22;;;;;;;12.93;8.05;;;21.40;72.70;;;;;;5098092;28;20079;-73
2021/09/08 11:19:53;;;;;;;10.70;6.78;;;21.40;73.40;;;;;;5096756;28;20059;-72
2021/09/08 11:22:19;;;;;;;10.60;7.03;;;21.50;74.00;;;;;;5097793;28;20347;-71
2021/09/08 11:24:45;;;;;;;10.65;6.45;;;21.50;74.20;;;;;;5080309;28;20052;-72
2021/09/08 11:27:11;;;;;;;10.32;5.95;;;21.50;74.10;;;;;;5097225;28;20052;-72
2021/09/08 11:29:37;;;;;;;9.88;6.82;;;21.50;73.90;;;;;;5097714;28;20036;-71
2021/09/08 11:32:03;;;;;;;8.43;6.15;;;21.50;74.00;;;;;;5079881;28;20046;-71
2021/09/08 11:34:29;;;;;;;11.68;6.82;;;21.50;73.70;;;;;;5097294;28;20120;-74
2021/09/08 11:36:59;;;;;;;11.15;6.13;;;21.50;73.80;;;;;;5097423;28;20137;-72
2021/09/08 11:39:26;;;;;;;9.20;6.75;;;21.50;73.70;;;;;;5097369;28;20035;-72
2021/09/08 11:42:07;;;;;;;9.80;5.95;;;21.60;73.60;;;;;;5079494;28;20036;-72
2021/09/08 11:44:33;;;;;;;9.57;6.38;;;21.50;73.60;;;;;;5096924;28;20060;-72
2021/09/08 11:46:59;;;;;;;7.93;5.95;;;21.60;73.50;;;;;;5078972;28;20054;-72
2021/09/08 11:49:25;;;;;;;9.52;6.85;;;21.60;73.30;;;;;;5096996;28;20040;-72
2021/09/08 11:51:51;;;;;;;9.00;6.93;;;21.60;72.60;;;;;;5097213;28;20036;-72
2021/09/08 11:54:22;;;;;;;9.45;6.32;;;21.70;72.00;;;;;;5097084;28;20086;-73
2021/09/08 11:56:59;;;;;;;10.00;6.30;;;21.70;72.70;;;;;;5097147;28;20050;-72
2021/09/08 11:59:33;;;;;;;10.80;6.00;;;21.70;73.00;;;;;;5096996;28;20124;-72
2021/09/08 12:02:00;;;;;;;10.70;6.70;;;21.60;72.80;;;;;;5096746;28;20439;-73
2021/09/08 12:04:28;;;;;;;8.90;6.25;;;21.60;72.30;;;;;;5096661;28;20044;-72
2021/09/08 12:06:58;;;;;;;11.32;6.93;;;21.70;72.00;;;;;;5097154;28;20119;-71
2021/09/08 12:09:26;;;;;;;8.07;6.88;;;21.70;71.40;;;;;;5096697;28;20105;-73
2021/09/08 12:11:57;;;;;;;7.75;6.63;;;21.70;71.30;;;;;;5078219;28;20098;-72
2021/09/08 12:14:28;;;;;;;8.57;6.82;;;21.70;71.00;;;;;;5096256;28;20048;-71
2021/09/08 12:16:56;;;;;;;7.20;6.20;;;21.70;71.40;;;;;;5096336;28;20043;-73
2021/09/08 12:19:29;;;;;;;7.53;5.95;;;21.70;71.50;;;;;;5096639;28;20042;-73
2021/09/08 12:22:10;;;;;;;8.98;6.60;;;21.70;71.80;;;;;;5096542;28;20050;-72
2021/09/08 12:24:44;;;;;;;10.35;6.15;;;21.70;71.90;;;;;;5078828;28;20477;-72
2021/09/08 12:27:37;;;;;;;10.00;6.97;;;21.70;71.60;;;;;;5096368;28;20048;-71
2021/09/08 12:30:06;;;;;;;9.65;6.43;;;21.70;71.90;;;;;;5096007;28;20048;-73
2021/09/08 12:32:51;;;;;;;11.00;6.35;;;21.70;72.00;;;;;;5078899;28;20109;-72